createdAt,value
2023-12-30T00:00:18.790Z,8.94
2023-12-30T00:01:14.494Z,8.96
2023-12-30T00:02:13.482Z,8.84
2023-12-30T00:03:13.708Z,8.86
2023-12-30T00:04:13.552Z,8.86
2023-12-30T00:05:13.480Z,8.91
2023-12-30T00:06:13.455Z,8.81
2023-12-30T00:07:13.507Z,8.86
2023-12-30T00:08:13.443Z,8.91
2023-12-30T00:09:13.410Z,8.99
2023-12-30T00:10:14.501Z,9.01
2023-12-30T00:11:13.389Z,8.97
2023-12-30T00:12:13.388Z,8.96
2023-12-30T00:13:13.402Z,8.97
2023-12-30T00:14:13.394Z,8.94
2023-12-30T00:15:13.372Z,8.91
2023-12-30T00:16:13.384Z,8.88
2023-12-30T00:17:13.349Z,8.99
2023-12-30T00:18:13.430Z,8.97
2023-12-30T00:19:13.407Z,8.94
2023-12-30T00:20:13.362Z,8.93
2023-12-30T00:21:13.377Z,8.93
2023-12-30T00:22:13.347Z,8.96
2023-12-30T00:23:13.313Z,8.83
2023-12-30T00:24:13.333Z,8.91
2023-12-30T00:25:13.337Z,8.87
2023-12-30T00:26:13.296Z,9.10
2023-12-30T00:27:13.284Z,8.90
2023-12-30T00:28:13.310Z,8.86
2023-12-30T00:29:13.427Z,8.96
2023-12-30T00:30:13.356Z,8.84
2023-12-30T00:31:13.303Z,8.86
2023-12-30T00:32:13.276Z,8.96
2023-12-30T00:33:13.319Z,8.90
2023-12-30T00:34:13.483Z,8.86
2023-12-30T00:35:13.258Z,8.78
2023-12-30T00:36:13.236Z,8.99
2023-12-30T00:37:13.228Z,8.96
2023-12-30T00:38:14.267Z,8.99
2023-12-30T00:39:13.202Z,8.97
2023-12-30T00:40:13.255Z,9.13
2023-12-30T00:41:13.209Z,9.09
2023-12-30T00:42:13.177Z,9.05
2023-12-30T00:43:13.195Z,9.06
2023-12-30T00:44:13.155Z,9.20
2023-12-30T00:45:13.260Z,9.21
2023-12-30T00:46:13.189Z,9.15
2023-12-30T00:47:13.157Z,9.13
2023-12-30T00:48:13.234Z,9.01
2023-12-30T00:49:13.221Z,9.15
2023-12-30T00:50:13.988Z,9.09
2023-12-30T00:51:13.148Z,9.04
2023-12-30T00:52:13.205Z,9.06
2023-12-30T00:53:13.091Z,9.10
2023-12-30T00:54:13.096Z,9.04
2023-12-30T00:55:13.121Z,8.96
2023-12-30T00:56:13.075Z,8.93
2023-12-30T00:57:13.089Z,8.90
2023-12-30T00:58:13.106Z,8.96
2023-12-30T00:59:13.064Z,8.91
2023-12-30T01:00:13.063Z,8.90
2023-12-30T01:01:13.135Z,8.84
2023-12-30T01:02:13.058Z,8.84
2023-12-30T01:03:13.051Z,8.72
2023-12-30T01:04:13.043Z,8.72
2023-12-30T01:05:13.076Z,8.68
2023-12-30T01:06:13.023Z,8.66
2023-12-30T01:07:13.065Z,8.71
2023-12-30T01:08:13.060Z,8.73
2023-12-30T01:09:13.007Z,8.66
2023-12-30T01:10:13.007Z,8.60
2023-12-30T01:11:12.983Z,8.55
2023-12-30T01:12:13.977Z,8.53
2023-12-30T01:13:12.990Z,8.54
2023-12-30T01:14:12.955Z,8.55
2023-12-30T01:15:13.010Z,8.57
2023-12-30T01:16:12.954Z,8.51
2023-12-30T01:17:12.956Z,8.53
2023-12-30T01:18:12.980Z,8.50
2023-12-30T01:19:13.123Z,8.58
2023-12-30T01:20:12.930Z,8.53
2023-12-30T01:21:12.938Z,8.48
2023-12-30T01:22:12.928Z,8.45
2023-12-30T01:23:12.896Z,8.50
2023-12-30T01:24:12.902Z,8.51
2023-12-30T01:25:12.887Z,8.47
2023-12-30T01:26:12.905Z,8.51
2023-12-30T01:27:12.870Z,8.50
2023-12-30T01:28:13.001Z,8.48
2023-12-30T01:29:13.481Z,8.50
2023-12-30T01:30:12.886Z,8.54
2023-12-30T01:31:12.910Z,8.50
2023-12-30T01:32:12.848Z,8.45
2023-12-30T01:33:12.882Z,8.50
2023-12-30T01:34:12.972Z,8.40
2023-12-30T01:35:12.808Z,8.55
2023-12-30T01:36:12.815Z,8.58
2023-12-30T01:37:12.853Z,8.62
2023-12-30T01:38:12.825Z,8.47
2023-12-30T01:39:12.874Z,8.66
2023-12-30T01:40:12.804Z,8.54
2023-12-30T01:41:12.763Z,8.60
2023-12-30T01:42:12.750Z,8.54
2023-12-30T01:43:12.853Z,8.54
2023-12-30T01:44:12.741Z,8.51
2023-12-30T01:45:12.742Z,8.48
2023-12-30T01:46:12.779Z,8.57
2023-12-30T01:47:12.741Z,8.42
2023-12-30T01:48:12.756Z,8.51
2023-12-30T01:49:12.704Z,8.42
2023-12-30T01:50:12.712Z,8.44
2023-12-30T01:51:24.265Z,8.47
2023-12-30T01:52:13.749Z,8.51
2023-12-30T01:53:12.730Z,8.55
2023-12-30T01:54:12.696Z,8.48
2023-12-30T01:55:12.692Z,8.40
2023-12-30T01:56:12.660Z,8.53
2023-12-30T01:57:12.656Z,8.53
2023-12-30T01:58:12.699Z,8.44
2023-12-30T01:59:12.677Z,8.51
2023-12-30T02:00:12.632Z,8.45
2023-12-30T02:01:12.697Z,8.50
2023-12-30T02:02:12.690Z,8.47
2023-12-30T02:03:12.639Z,8.42
2023-12-30T02:04:12.683Z,8.48
2023-12-30T02:05:14.247Z,8.44
2023-12-30T02:06:12.607Z,8.30
2023-12-30T02:07:12.592Z,8.48
2023-12-30T02:08:12.581Z,8.45
2023-12-30T02:09:12.585Z,8.44
2023-12-30T02:10:12.606Z,8.40
2023-12-30T02:11:12.576Z,8.45
2023-12-30T02:12:12.586Z,8.50
2023-12-30T02:13:12.599Z,8.44
2023-12-30T02:14:12.546Z,8.36
2023-12-30T02:15:12.537Z,8.48
2023-12-30T02:16:12.606Z,8.36
2023-12-30T02:17:12.645Z,8.45
2023-12-30T02:18:12.597Z,8.44
2023-12-30T02:19:12.524Z,8.36
2023-12-30T02:20:12.510Z,8.44
2023-12-30T02:21:12.509Z,8.55
2023-12-30T02:22:12.505Z,8.54
2023-12-30T02:23:12.479Z,8.53
2023-12-30T02:24:12.479Z,8.50
2023-12-30T02:25:12.585Z,8.47
2023-12-30T02:26:12.459Z,8.47
2023-12-30T02:27:12.458Z,8.51
2023-12-30T02:28:12.471Z,8.40
2023-12-30T02:29:12.441Z,8.32
2023-12-30T02:30:12.492Z,8.39
2023-12-30T02:31:12.546Z,8.36
2023-12-30T02:32:12.415Z,8.28
2023-12-30T02:33:12.519Z,8.25
2023-12-30T02:34:12.445Z,8.22
2023-12-30T02:35:12.395Z,8.25
2023-12-30T02:36:12.449Z,8.29
2023-12-30T02:37:12.433Z,8.33
2023-12-30T02:38:12.397Z,8.26
2023-12-30T02:39:12.377Z,8.30
2023-12-30T02:40:12.423Z,8.30
2023-12-30T02:41:12.352Z,8.36
2023-12-30T02:42:12.367Z,8.44
2023-12-30T02:43:12.395Z,8.44
2023-12-30T02:44:12.343Z,8.35
2023-12-30T02:45:12.366Z,8.32
2023-12-30T02:46:12.329Z,8.30
2023-12-30T02:47:12.346Z,8.21
2023-12-30T02:48:12.427Z,8.29
2023-12-30T02:49:12.392Z,8.28
2023-12-30T02:50:12.300Z,8.22
2023-12-30T02:51:12.281Z,8.26
2023-12-30T02:52:12.334Z,8.28
2023-12-30T02:53:12.334Z,8.18
2023-12-30T02:54:12.274Z,8.14
2023-12-30T02:55:12.398Z,8.14
2023-12-30T02:56:12.253Z,8.21
2023-12-30T02:57:12.377Z,8.21
2023-12-30T02:58:12.283Z,8.20
2023-12-30T02:59:12.248Z,8.26
2023-12-30T03:00:12.223Z,8.28
2023-12-30T03:01:12.305Z,8.22
2023-12-30T03:02:13.219Z,8.22
2023-12-30T03:03:12.269Z,8.26
2023-12-30T03:04:12.284Z,8.25
2023-12-30T03:05:12.338Z,8.33
2023-12-30T03:06:12.286Z,8.35
2023-12-30T03:07:12.197Z,8.33
2023-12-30T03:08:12.180Z,8.29
2023-12-30T03:09:12.240Z,8.30
2023-12-30T03:10:12.216Z,8.36
2023-12-30T03:11:12.231Z,8.30
2023-12-30T03:12:12.144Z,8.32
2023-12-30T03:13:12.196Z,8.29
2023-12-30T03:14:12.145Z,8.44
2023-12-30T03:15:12.140Z,8.42
2023-12-30T03:16:12.184Z,8.40
2023-12-30T03:17:12.121Z,8.40
2023-12-30T03:18:12.208Z,8.37
2023-12-30T03:19:12.262Z,8.35
2023-12-30T03:20:12.120Z,8.33
2023-12-30T03:21:12.090Z,8.29
2023-12-30T03:22:12.141Z,8.12
2023-12-30T03:23:12.075Z,8.17
2023-12-30T03:24:12.072Z,8.15
2023-12-30T03:25:12.132Z,8.07
2023-12-30T03:26:12.113Z,8.21
2023-12-30T03:27:12.065Z,8.08
2023-12-30T03:28:12.119Z,8.07
2023-12-30T03:29:12.059Z,8.07
2023-12-30T03:30:12.091Z,8.14
2023-12-30T03:31:12.068Z,8.08
2023-12-30T03:32:12.074Z,8.15
2023-12-30T03:33:12.084Z,8.07
2023-12-30T03:34:12.085Z,8.11
2023-12-30T03:35:12.011Z,8.14
2023-12-30T03:36:12.029Z,8.14
2023-12-30T03:37:12.109Z,8.03
2023-12-30T03:38:11.987Z,8.10
2023-12-30T03:39:12.002Z,8.10
2023-12-30T03:40:12.008Z,8.15
2023-12-30T03:41:12.002Z,8.14
2023-12-30T03:42:11.939Z,8.08
2023-12-30T03:43:12.030Z,8.03
2023-12-30T03:44:11.968Z,7.97
2023-12-30T03:45:11.938Z,7.96
2023-12-30T03:46:11.992Z,7.94
2023-12-30T03:47:11.933Z,7.96
2023-12-30T03:48:12.965Z,7.90
2023-12-30T03:49:12.010Z,7.87
2023-12-30T03:50:11.929Z,7.93
2023-12-30T03:51:11.898Z,7.87
2023-12-30T03:52:11.909Z,7.90
2023-12-30T03:53:11.888Z,7.82
2023-12-30T03:54:11.903Z,7.84
2023-12-30T03:55:11.911Z,7.81
2023-12-30T03:56:11.856Z,7.75
2023-12-30T03:57:11.854Z,7.78
2023-12-30T03:58:11.866Z,7.77
2023-12-30T03:59:11.859Z,7.66
2023-12-30T04:00:11.881Z,7.71
2023-12-30T04:01:11.934Z,7.53
2023-12-30T04:02:11.827Z,7.52
2023-12-30T04:03:11.910Z,7.56
2023-12-30T04:04:11.869Z,7.56
2023-12-30T04:05:11.880Z,7.53
2023-12-30T04:06:11.798Z,7.49
2023-12-30T04:07:11.819Z,7.44
2023-12-30T04:08:11.770Z,7.55
2023-12-30T04:09:11.775Z,7.59
2023-12-30T04:10:11.779Z,7.55
2023-12-30T04:11:11.774Z,7.49
2023-12-30T04:12:11.755Z,7.47
2023-12-30T04:13:11.961Z,7.44
2023-12-30T04:14:11.762Z,7.41
2023-12-30T04:15:11.740Z,7.45
2023-12-30T04:16:11.753Z,7.47
2023-12-30T04:17:11.735Z,7.50
2023-12-30T04:18:11.759Z,7.37
2023-12-30T04:19:11.821Z,7.37
2023-12-30T04:20:11.680Z,7.38
2023-12-30T04:21:11.686Z,7.38
2023-12-30T04:22:11.719Z,7.37
2023-12-30T04:23:11.688Z,7.29
2023-12-30T04:24:11.664Z,7.16
2023-12-30T04:25:11.719Z,7.23
2023-12-30T04:26:11.657Z,7.27
2023-12-30T04:27:11.636Z,7.23
2023-12-30T04:28:11.692Z,7.35
2023-12-30T04:29:11.634Z,7.34
2023-12-30T04:30:11.641Z,7.27
2023-12-30T04:31:11.692Z,7.19
2023-12-30T04:32:11.684Z,7.23
2023-12-30T04:33:11.684Z,7.23
2023-12-30T04:34:11.715Z,7.22
2023-12-30T04:35:11.612Z,7.27
2023-12-30T04:36:11.584Z,7.23
2023-12-30T04:37:11.590Z,7.20
2023-12-30T04:38:12.566Z,7.24
2023-12-30T04:39:11.590Z,7.32
2023-12-30T04:40:11.625Z,7.29
2023-12-30T04:41:11.552Z,7.32
2023-12-30T04:42:11.547Z,7.31
2023-12-30T04:43:11.580Z,7.23
2023-12-30T04:44:11.527Z,7.31
2023-12-30T04:45:11.555Z,7.23
2023-12-30T04:46:11.568Z,7.29
2023-12-30T04:47:11.516Z,7.32
2023-12-30T04:48:11.555Z,7.16
2023-12-30T04:49:11.565Z,7.23
2023-12-30T04:50:11.498Z,7.29
2023-12-30T04:51:11.543Z,7.35
2023-12-30T04:52:11.556Z,7.38
2023-12-30T04:53:11.485Z,7.27
2023-12-30T04:54:11.481Z,7.29
2023-12-30T04:55:11.546Z,7.24
2023-12-30T04:56:11.463Z,7.34
2023-12-30T04:57:11.554Z,7.29
2023-12-30T04:58:11.492Z,7.20
2023-12-30T04:59:11.471Z,7.26
2023-12-30T05:00:11.430Z,7.20
2023-12-30T05:01:11.492Z,7.17
2023-12-30T05:02:12.460Z,7.12
2023-12-30T05:03:11.426Z,7.12
2023-12-30T05:04:11.472Z,7.02
2023-12-30T05:05:11.428Z,6.95
2023-12-30T05:06:11.400Z,6.98
2023-12-30T05:07:11.403Z,6.95
2023-12-30T05:08:11.430Z,6.94
2023-12-30T05:09:11.411Z,6.81
2023-12-30T05:10:11.445Z,6.79
2023-12-30T05:11:11.355Z,6.89
2023-12-30T05:12:11.354Z,6.89
2023-12-30T05:13:11.413Z,7.04
2023-12-30T05:14:11.393Z,7.04
2023-12-30T05:15:11.334Z,7.09
2023-12-30T05:16:11.360Z,7.09
2023-12-30T05:17:11.334Z,7.04
2023-12-30T05:18:11.426Z,7.09
2023-12-30T05:19:11.420Z,7.08
2023-12-30T05:20:11.313Z,7.01
2023-12-30T05:21:11.300Z,7.07
2023-12-30T05:22:11.314Z,6.97
2023-12-30T05:23:11.327Z,7.04
2023-12-30T05:24:11.286Z,7.04
2023-12-30T05:25:11.307Z,6.94
2023-12-30T05:26:11.276Z,7.01
2023-12-30T05:27:11.263Z,7.02
2023-12-30T05:28:11.278Z,7.04
2023-12-30T05:29:11.257Z,6.98
2023-12-30T05:30:11.314Z,6.97
2023-12-30T05:31:11.421Z,6.98
2023-12-30T05:32:11.230Z,6.95
2023-12-30T05:33:11.338Z,6.91
2023-12-30T05:34:11.319Z,6.98
2023-12-30T05:35:11.248Z,7.12
2023-12-30T05:36:11.215Z,7.12
2023-12-30T05:37:11.249Z,7.20
2023-12-30T05:38:11.191Z,7.20
2023-12-30T05:39:11.187Z,7.29
2023-12-30T05:40:11.200Z,7.29
2023-12-30T05:41:11.185Z,7.35
2023-12-30T05:42:11.171Z,7.27
2023-12-30T05:43:11.203Z,7.20
2023-12-30T05:44:11.156Z,7.23
2023-12-30T05:45:11.151Z,7.23
2023-12-30T05:46:11.185Z,7.24
2023-12-30T05:47:11.152Z,7.22
2023-12-30T05:48:11.238Z,7.27
2023-12-30T05:49:11.194Z,7.24
2023-12-30T05:50:11.102Z,7.29
2023-12-30T05:51:11.102Z,7.24
2023-12-30T05:52:11.140Z,7.34
2023-12-30T05:53:11.094Z,7.24
2023-12-30T05:54:11.085Z,7.26
2023-12-30T05:55:11.095Z,7.38
2023-12-30T05:56:11.156Z,7.35
2023-12-30T05:57:11.064Z,7.41
2023-12-30T05:58:11.090Z,7.34
2023-12-30T05:59:11.057Z,7.38
2023-12-30T06:00:11.053Z,7.42
2023-12-30T06:01:11.138Z,7.45
2023-12-30T06:02:11.039Z,7.35
2023-12-30T06:03:11.065Z,7.35
2023-12-30T06:04:11.067Z,7.40
2023-12-30T06:05:11.026Z,7.35
2023-12-30T06:06:11.074Z,7.34
2023-12-30T06:07:11.048Z,7.32
2023-12-30T06:08:10.996Z,7.37
2023-12-30T06:09:10.988Z,7.37
2023-12-30T06:10:11.068Z,7.32
2023-12-30T06:11:10.982Z,7.40
2023-12-30T06:12:10.983Z,7.31
2023-12-30T06:13:10.986Z,7.24
2023-12-30T06:14:10.965Z,7.34
2023-12-30T06:15:10.945Z,7.34
2023-12-30T06:16:10.991Z,7.35
2023-12-30T06:17:10.933Z,7.31
2023-12-30T06:18:10.988Z,7.24
2023-12-30T06:19:12.908Z,7.26
2023-12-30T06:20:10.937Z,7.32
2023-12-30T06:21:10.915Z,7.27
2023-12-30T06:22:10.931Z,7.27
2023-12-30T06:23:10.908Z,7.22
2023-12-30T06:24:10.971Z,7.23
2023-12-30T06:25:11.009Z,7.24
2023-12-30T06:26:10.879Z,7.29
2023-12-30T06:27:10.871Z,7.23
2023-12-30T06:28:10.929Z,7.20
2023-12-30T06:29:10.898Z,7.22
2023-12-30T06:30:10.910Z,7.17
2023-12-30T06:31:10.884Z,7.17
2023-12-30T06:32:10.862Z,7.12
2023-12-30T06:33:10.895Z,7.12
2023-12-30T06:34:10.871Z,7.16
2023-12-30T06:35:10.821Z,7.09
2023-12-30T06:36:10.806Z,6.97
2023-12-30T06:37:10.954Z,7.05
2023-12-30T06:38:10.840Z,7.04
2023-12-30T06:39:10.815Z,6.99
2023-12-30T06:40:10.821Z,6.90
2023-12-30T06:41:10.808Z,6.94
2023-12-30T06:42:10.783Z,6.97
2023-12-30T06:43:10.938Z,6.95
2023-12-30T06:44:10.783Z,6.99
2023-12-30T06:45:10.769Z,6.98
2023-12-30T06:46:10.772Z,7.17
2023-12-30T06:47:10.732Z,7.19
2023-12-30T06:48:10.808Z,7.26
2023-12-30T06:49:10.986Z,7.16
2023-12-30T06:50:10.723Z,7.13
2023-12-30T06:51:10.725Z,7.15
2023-12-30T06:52:10.750Z,7.16
2023-12-30T06:53:10.698Z,7.27
2023-12-30T06:54:10.704Z,7.32
2023-12-30T06:55:18.684Z,7.32
2023-12-30T06:56:11.703Z,7.27
2023-12-30T06:57:10.690Z,7.31
2023-12-30T06:58:10.690Z,7.32
2023-12-30T06:59:12.753Z,7.27
2023-12-30T07:00:11.812Z,7.17
2023-12-30T07:01:10.762Z,7.23
2023-12-30T07:02:10.628Z,7.15
2023-12-30T07:03:10.640Z,7.19
2023-12-30T07:04:10.704Z,7.08
2023-12-30T07:05:10.675Z,7.02
2023-12-30T07:06:10.609Z,7.05
2023-12-30T07:07:10.652Z,6.99
2023-12-30T07:08:10.617Z,7.09
2023-12-30T07:09:10.587Z,7.12
2023-12-30T07:10:10.627Z,7.12
2023-12-30T07:11:10.577Z,7.07
2023-12-30T07:12:10.718Z,7.09
2023-12-30T07:13:10.699Z,7.12
2023-12-30T07:14:10.573Z,7.17
2023-12-30T07:15:10.665Z,7.13
2023-12-30T07:16:10.659Z,7.20
2023-12-30T07:17:10.538Z,7.19
2023-12-30T07:18:10.708Z,7.15
2023-12-30T07:19:10.714Z,7.15
2023-12-30T07:20:10.576Z,7.16
2023-12-30T07:21:10.532Z,7.29
2023-12-30T07:22:10.515Z,7.12
2023-12-30T07:23:10.552Z,7.17
2023-12-30T07:24:10.497Z,7.23
2023-12-30T07:25:10.499Z,7.22
2023-12-30T07:26:10.494Z,7.19
2023-12-30T07:27:10.469Z,7.27
2023-12-30T07:28:10.497Z,7.34
2023-12-30T07:29:10.523Z,7.26
2023-12-30T07:30:10.489Z,7.24
2023-12-30T07:31:10.507Z,7.19
2023-12-30T07:32:10.473Z,7.37
2023-12-30T07:33:10.505Z,7.27
2023-12-30T07:34:10.509Z,7.38
2023-12-30T07:35:10.455Z,7.31
2023-12-30T07:36:10.450Z,7.32
2023-12-30T07:37:10.455Z,7.41
2023-12-30T07:38:10.416Z,7.58
2023-12-30T07:39:10.402Z,7.38
2023-12-30T07:40:10.451Z,7.42
2023-12-30T07:41:10.394Z,7.35
2023-12-30T07:42:10.472Z,7.41
2023-12-30T07:43:10.438Z,7.44
2023-12-30T07:44:10.374Z,7.44
2023-12-30T07:45:10.349Z,7.35
2023-12-30T07:46:10.442Z,7.38
2023-12-30T07:47:10.349Z,7.32
2023-12-30T07:48:10.398Z,7.32
2023-12-30T07:49:10.385Z,7.34
2023-12-30T07:50:10.375Z,7.32
2023-12-30T07:51:10.326Z,7.31
2023-12-30T07:52:10.437Z,7.34
2023-12-30T07:53:10.313Z,7.37
2023-12-30T07:54:10.328Z,7.35
2023-12-30T07:55:10.295Z,7.22
2023-12-30T07:56:10.282Z,7.35
2023-12-30T07:57:10.282Z,7.27
2023-12-30T07:58:10.399Z,7.42
2023-12-30T07:59:10.358Z,7.38
2023-12-30T08:00:10.277Z,7.42
2023-12-30T08:01:10.322Z,7.42
2023-12-30T08:02:10.348Z,7.58
2023-12-30T08:03:10.265Z,7.56
2023-12-30T08:04:10.300Z,7.58
2023-12-30T08:05:10.418Z,7.53
2023-12-30T08:06:10.250Z,7.55
2023-12-30T08:07:10.258Z,7.62
2023-12-30T08:08:10.215Z,7.58
2023-12-30T08:09:10.222Z,7.53
2023-12-30T08:10:10.248Z,7.52
2023-12-30T08:11:10.211Z,7.63
2023-12-30T08:12:10.272Z,7.56
2023-12-30T08:13:10.226Z,7.59
2023-12-30T08:14:10.204Z,7.59
2023-12-30T08:15:10.180Z,7.71
2023-12-30T08:16:10.955Z,7.60
2023-12-30T08:17:10.428Z,7.66
2023-12-30T08:18:10.237Z,7.74
2023-12-30T08:19:10.154Z,7.96
2023-12-30T08:20:10.265Z,8.26
2023-12-30T08:21:10.138Z,8.47
2023-12-30T08:22:10.141Z,8.55
2023-12-30T08:23:10.151Z,8.69
2023-12-30T08:24:10.120Z,8.91
2023-12-30T08:25:10.188Z,8.96
2023-12-30T08:26:10.097Z,9.16
2023-12-30T08:27:10.087Z,8.86
2023-12-30T08:28:10.108Z,8.79
2023-12-30T08:29:10.095Z,8.62
2023-12-30T08:30:10.485Z,8.50
2023-12-30T08:31:10.108Z,8.33
2023-12-30T08:32:10.066Z,8.21
2023-12-30T08:33:10.274Z,8.21
2023-12-30T08:34:10.133Z,8.28
2023-12-30T08:35:10.057Z,8.07
2023-12-30T08:36:10.045Z,8.10
2023-12-30T08:37:10.170Z,8.03
2023-12-30T08:38:10.020Z,7.89
2023-12-30T08:39:10.008Z,7.96
2023-12-30T08:40:10.021Z,7.87
2023-12-30T08:41:10.050Z,7.94
2023-12-30T08:42:10.986Z,7.92
2023-12-30T08:43:10.001Z,7.93
2023-12-30T08:44:10.065Z,8.02
2023-12-30T08:45:09.970Z,7.97
2023-12-30T08:46:10.015Z,7.89
2023-12-30T08:47:10.308Z,8.07
2023-12-30T08:48:10.026Z,8.15
2023-12-30T08:49:11.196Z,8.20
2023-12-30T08:50:10.016Z,8.18
2023-12-30T08:51:09.920Z,8.26
2023-12-30T08:52:09.997Z,8.26
2023-12-30T08:53:09.946Z,8.42
2023-12-30T08:54:09.994Z,8.72
2023-12-30T08:55:09.947Z,8.99
2023-12-30T08:56:09.896Z,9.35
2023-12-30T08:57:09.893Z,9.56
2023-12-30T08:58:09.925Z,9.75
2023-12-30T08:59:09.945Z,9.85
2023-12-30T09:00:09.866Z,9.76
2023-12-30T09:01:09.921Z,9.73
2023-12-30T09:02:09.877Z,9.63
2023-12-30T09:03:09.950Z,9.32
2023-12-30T09:04:09.924Z,9.23
2023-12-30T09:05:09.827Z,8.96
2023-12-30T09:06:09.858Z,8.83
2023-12-30T09:07:09.872Z,8.58
2023-12-30T09:08:09.825Z,8.47
2023-12-30T09:09:09.807Z,8.47
2023-12-30T09:10:09.875Z,8.36
2023-12-30T09:11:09.798Z,8.28
2023-12-30T09:12:09.817Z,8.20
2023-12-30T09:13:09.818Z,8.11
2023-12-30T09:14:09.782Z,8.04
2023-12-30T09:15:09.764Z,8.08
2023-12-30T09:16:09.778Z,8.08
2023-12-30T09:17:09.815Z,7.93
2023-12-30T09:18:12.906Z,7.90
2023-12-30T09:19:11.894Z,7.87
2023-12-30T09:20:09.783Z,7.93
2023-12-30T09:21:09.731Z,7.92
2023-12-30T09:22:09.839Z,7.93
2023-12-30T09:23:09.725Z,7.85
2023-12-30T09:24:09.711Z,7.79
2023-12-30T09:25:09.765Z,7.87
2023-12-30T09:26:09.729Z,7.77
2023-12-30T09:27:09.692Z,7.78
2023-12-30T09:28:09.729Z,7.81
2023-12-30T09:29:09.665Z,7.84
2023-12-30T09:30:09.743Z,7.77
2023-12-30T09:31:09.789Z,7.75
2023-12-30T09:32:09.649Z,7.71
2023-12-30T09:33:12.062Z,7.75
2023-12-30T09:34:09.701Z,7.72
2023-12-30T09:35:09.699Z,7.71
2023-12-30T09:36:09.639Z,7.75
2023-12-30T09:37:09.692Z,7.72
2023-12-30T09:38:09.751Z,7.67
2023-12-30T09:39:09.609Z,7.60
2023-12-30T09:40:09.676Z,7.67
2023-12-30T09:41:09.603Z,7.59
2023-12-30T09:42:09.645Z,7.59
2023-12-30T09:43:09.604Z,7.59
2023-12-30T09:44:09.576Z,7.55
2023-12-30T09:45:09.574Z,7.66
2023-12-30T09:46:09.590Z,7.55
2023-12-30T09:47:09.563Z,7.60
2023-12-30T09:48:09.627Z,7.58
2023-12-30T09:49:09.581Z,7.56
2023-12-30T09:50:09.546Z,7.58
2023-12-30T09:51:09.529Z,7.58
2023-12-30T09:52:09.563Z,7.59
2023-12-30T09:53:09.521Z,7.58
2023-12-30T09:54:09.554Z,7.67
2023-12-30T09:55:09.577Z,7.55
2023-12-30T09:56:09.526Z,7.67
2023-12-30T09:57:09.486Z,7.63
2023-12-30T09:58:09.479Z,7.67
2023-12-30T09:59:09.482Z,7.67
2023-12-30T10:00:09.454Z,7.66
2023-12-30T10:01:09.586Z,7.72
2023-12-30T10:02:09.507Z,7.77
2023-12-30T10:03:09.484Z,7.79
2023-12-30T10:04:09.551Z,7.78
2023-12-30T10:05:09.636Z,7.82
2023-12-30T10:06:09.441Z,7.78
2023-12-30T10:07:09.504Z,7.74
2023-12-30T10:08:41.833Z,7.82
2023-12-30T10:09:09.411Z,7.75
2023-12-30T10:10:09.432Z,7.79
2023-12-30T10:11:09.397Z,7.75
2023-12-30T10:12:09.474Z,7.72
2023-12-30T10:13:12.637Z,7.81
2023-12-30T10:14:09.388Z,7.78
2023-12-30T10:15:09.421Z,7.78
2023-12-30T10:16:09.382Z,7.81
2023-12-30T10:17:09.383Z,7.74
2023-12-30T10:18:09.481Z,7.71
2023-12-30T10:19:09.438Z,7.62
2023-12-30T10:20:11.469Z,7.81
2023-12-30T10:21:09.356Z,7.74
2023-12-30T10:22:09.349Z,7.75
2023-12-30T10:23:09.312Z,7.77
2023-12-30T10:24:09.312Z,7.82
2023-12-30T10:25:09.355Z,7.78
2023-12-30T10:26:09.329Z,7.87
2023-12-30T10:27:09.319Z,7.96
2023-12-30T10:28:09.302Z,7.87
2023-12-30T10:29:09.280Z,7.90
2023-12-30T10:30:09.340Z,7.84
2023-12-30T10:31:09.400Z,7.99
2023-12-30T10:32:09.255Z,7.94
2023-12-30T10:33:09.480Z,7.96
2023-12-30T10:34:09.434Z,7.99
2023-12-30T10:35:09.248Z,7.93
2023-12-30T10:36:09.271Z,8.00
2023-12-30T10:37:09.284Z,8.12
2023-12-30T10:38:09.228Z,8.00
2023-12-30T10:39:09.221Z,8.08
2023-12-30T10:40:09.226Z,8.22
2023-12-30T10:41:09.195Z,8.18
2023-12-30T10:42:09.206Z,8.30
2023-12-30T10:43:09.893Z,8.28
2023-12-30T10:44:09.249Z,8.33
2023-12-30T10:45:09.180Z,8.28
2023-12-30T10:46:09.225Z,8.30
2023-12-30T10:47:09.342Z,8.33
2023-12-30T10:48:09.718Z,8.48
2023-12-30T10:49:09.270Z,8.42
2023-12-30T10:50:09.236Z,8.48
2023-12-30T10:51:09.514Z,8.48
2023-12-30T10:52:09.142Z,8.60
2023-12-30T10:53:09.158Z,8.68
2023-12-30T10:54:10.117Z,8.72
2023-12-30T10:55:09.214Z,8.78
2023-12-30T10:56:09.109Z,8.90
2023-12-30T10:57:09.083Z,8.88
2023-12-30T10:58:09.110Z,8.97
2023-12-30T10:59:09.102Z,8.96
2023-12-30T11:00:09.153Z,8.91
2023-12-30T11:01:09.095Z,8.90
2023-12-30T11:02:09.090Z,8.86
2023-12-30T11:03:09.100Z,8.96
2023-12-30T11:04:09.133Z,8.94
2023-12-30T11:05:09.583Z,8.96
2023-12-30T11:06:09.154Z,8.97
2023-12-30T11:07:09.058Z,8.88
2023-12-30T11:08:09.043Z,8.91
2023-12-30T11:09:09.105Z,8.84
2023-12-30T11:10:09.035Z,8.99
2023-12-30T11:11:09.091Z,8.99
2023-12-30T11:12:08.976Z,9.02
2023-12-30T11:13:09.549Z,8.97
2023-12-30T11:14:08.983Z,9.02
2023-12-30T11:15:08.969Z,9.01
2023-12-30T11:16:08.993Z,8.97
2023-12-30T11:17:08.968Z,8.96
2023-12-30T11:18:09.030Z,8.97
2023-12-30T11:19:09.018Z,8.94
2023-12-30T11:20:08.977Z,9.01
2023-12-30T11:21:09.114Z,9.05
2023-12-30T11:22:08.968Z,9.01
2023-12-30T11:23:08.908Z,9.10
2023-12-30T11:24:08.935Z,9.09
2023-12-30T11:25:09.036Z,8.99
2023-12-30T11:26:08.888Z,8.96
2023-12-30T11:27:08.877Z,9.05
2023-12-30T11:28:08.899Z,8.99
2023-12-30T11:29:08.891Z,9.01
2023-12-30T11:30:08.915Z,9.06
2023-12-30T11:31:08.885Z,9.05
2023-12-30T11:32:09.294Z,9.05
2023-12-30T11:33:08.926Z,9.06
2023-12-30T11:34:08.903Z,9.06
2023-12-30T11:35:08.878Z,9.02
2023-12-30T11:36:08.814Z,9.04
2023-12-30T11:37:08.841Z,9.04
2023-12-30T11:38:08.886Z,9.06
2023-12-30T11:39:08.801Z,9.09
2023-12-30T11:40:08.882Z,9.10
2023-12-30T11:41:08.876Z,9.18
2023-12-30T11:42:08.821Z,9.20
2023-12-30T11:43:08.830Z,9.21
2023-12-30T11:44:08.776Z,9.20
2023-12-30T11:45:08.755Z,9.27
2023-12-30T11:46:08.812Z,9.21
2023-12-30T11:47:08.738Z,9.28
2023-12-30T11:48:08.802Z,9.15
2023-12-30T11:49:08.975Z,9.16
2023-12-30T11:50:10.684Z,9.15
2023-12-30T11:51:09.746Z,9.15
2023-12-30T11:52:08.742Z,9.09
2023-12-30T11:53:08.711Z,9.09
2023-12-30T11:54:08.698Z,9.04
2023-12-30T11:55:08.730Z,9.04
2023-12-30T11:56:09.865Z,9.01
2023-12-30T11:57:08.774Z,9.06
2023-12-30T11:58:08.715Z,8.91
2023-12-30T11:59:08.706Z,8.93
2023-12-30T12:00:08.697Z,8.94
2023-12-30T12:01:08.692Z,8.93
2023-12-30T12:02:08.737Z,8.96
2023-12-30T12:03:08.645Z,9.02
2023-12-30T12:04:08.764Z,9.06
2023-12-30T12:05:08.766Z,9.21
2023-12-30T12:06:08.704Z,9.21
2023-12-30T12:07:08.741Z,9.25
2023-12-30T12:08:08.605Z,9.28
2023-12-30T12:09:08.606Z,9.30
2023-12-30T12:10:08.676Z,9.49
2023-12-30T12:11:08.576Z,9.64
2023-12-30T12:12:08.605Z,9.75
2023-12-30T12:13:08.765Z,9.89
2023-12-30T12:14:08.570Z,9.89
2023-12-30T12:15:08.564Z,9.96
2023-12-30T12:16:08.589Z,10.01
2023-12-30T12:17:08.545Z,9.97
2023-12-30T12:18:08.714Z,9.93
2023-12-30T12:19:08.835Z,9.89
2023-12-30T12:20:08.528Z,9.96
2023-12-30T12:21:08.543Z,9.83
2023-12-30T12:22:08.521Z,9.86
2023-12-30T12:23:08.500Z,9.85
2023-12-30T12:24:08.537Z,9.81
2023-12-30T12:25:08.504Z,10.03
2023-12-30T12:26:08.472Z,10.24
2023-12-30T12:27:08.509Z,10.43
2023-12-30T12:28:08.588Z,10.74
2023-12-30T12:29:08.575Z,10.84
2023-12-30T12:30:08.649Z,10.95
2023-12-30T12:31:08.625Z,10.47
2023-12-30T12:32:08.453Z,10.33
2023-12-30T12:33:08.515Z,10.09
2023-12-30T12:34:08.532Z,9.93
2023-12-30T12:35:08.511Z,9.99
2023-12-30T12:36:08.413Z,9.88
2023-12-30T12:37:09.424Z,9.89
2023-12-30T12:38:08.412Z,9.82
2023-12-30T12:39:08.408Z,9.75
2023-12-30T12:40:08.453Z,9.76
2023-12-30T12:41:08.412Z,9.68
2023-12-30T12:42:14.966Z,9.60
2023-12-30T12:43:10.414Z,9.56
2023-12-30T12:44:08.367Z,9.50
2023-12-30T12:45:08.403Z,9.49
2023-12-30T12:46:08.412Z,9.48
2023-12-30T12:47:08.349Z,9.49
2023-12-30T12:48:08.429Z,9.52
2023-12-30T12:49:08.436Z,9.53
2023-12-30T12:50:08.366Z,9.48
2023-12-30T12:51:08.321Z,9.58
2023-12-30T12:52:08.334Z,9.66
2023-12-30T12:53:08.314Z,9.66
2023-12-30T12:54:08.476Z,9.57
2023-12-30T12:55:08.393Z,9.67
2023-12-30T12:56:08.302Z,9.73
2023-12-30T12:57:08.301Z,9.64
2023-12-30T12:58:08.323Z,9.75
2023-12-30T12:59:08.290Z,9.73
2023-12-30T13:00:08.295Z,9.82
2023-12-30T13:01:08.363Z,9.86
2023-12-30T13:02:08.312Z,9.75
2023-12-30T13:03:08.547Z,9.75
2023-12-30T13:04:08.307Z,9.86
2023-12-30T13:05:08.233Z,9.78
2023-12-30T13:06:08.261Z,9.76
2023-12-30T13:07:08.277Z,9.79
2023-12-30T13:08:08.259Z,9.81
2023-12-30T13:09:08.210Z,9.82
2023-12-30T13:10:08.197Z,9.68
2023-12-30T13:11:08.186Z,9.86
2023-12-30T13:12:08.204Z,9.86
2023-12-30T13:13:09.360Z,9.85
2023-12-30T13:14:08.198Z,9.93
2023-12-30T13:15:08.163Z,9.83
2023-12-30T13:16:08.193Z,9.89
2023-12-30T13:17:08.249Z,9.88
2023-12-30T13:18:08.240Z,9.76